This is the latest recevied weather packets stored in our database for station/object OK1TOM-6. If no packets are shown the sender has not sent any weather packets the latest 10 day(s).
| Time | Temp. | Humidity | Pressure | Rain* | Wind** | Luminosity | Snow |
|---|---|---|---|---|---|---|---|
| 1777593320 | 1.67° C | 81% | 1031.2 hPa | 0 mm | - | - | - |
| 1777592716 | 2.22° C | 79% | 1031.1 hPa | 0 mm | - | - | - |
| 1777592173 | 2.78° C | 78% | 1031.1 hPa | 0 mm | - | - | - |
| 1777591570 | 2.22° C | 79% | 1031.2 hPa | 0 mm | - | - | - |
| 1777590966 | 2.78° C | 77% | 1031.2 hPa | 0 mm | - | - | - |
| 1777590363 | 2.22° C | 78% | 1031.3 hPa | 0 mm | - | - | - |
| 1777589759 | 1.67° C | 82% | 1031.3 hPa | 0 mm | - | - | - |
| 1777589156 | 1.67° C | 81% | 1031.4 hPa | 0 mm | - | - | - |
| 1777588552 | 1.67° C | 80% | 1031.3 hPa | 0 mm | - | - | - |
| 1777587949 | 1.67° C | 80% | 1031.4 hPa | 0 mm | - | - | - |
| 1777587346 | 2.22° C | 79% | 1031.3 hPa | 0 mm | - | - | - |
| 1777586742 | 2.22° C | 79% | 1031.4 hPa | 0 mm | - | - | - |
| 1777586139 | 3.33° C | 76% | 1031.3 hPa | 0 mm | - | - | - |
| 1777585535 | 3.89° C | 73% | 1031.4 hPa | 0 mm | - | - | - |
| 1777584932 | 3.89° C | 72% | 1031.4 hPa | 0 mm | - | - | - |
| 1777584328 | 3.89° C | 71% | 1031.3 hPa | 0 mm | - | - | - |
| 1777583725 | 4.44° C | 70% | 1031.4 hPa | 0 mm | - | - | - |
| 1777583122 | 4.44° C | 69% | 1031.3 hPa | 0 mm | - | - | - |
| 1777582518 | 4.44° C | 69% | 1031.2 hPa | 0 mm | - | - | - |
| 1777581975 | 5° C | 67% | 1031.3 hPa | 0 mm | - | - | - |
| 1777581372 | 5° C | 67% | 1031.3 hPa | 0 mm | - | - | - |
| 1777580768 | 5° C | 67% | 1031.4 hPa | 0 mm | - | - | - |
| 1777580165 | 4.44° C | 67% | 1031.4 hPa | 0 mm | - | - | - |
| 1777579561 | 4.44° C | 66% | 1031.5 hPa | 0 mm | - | - | - |
| 1777578958 | 4.44° C | 67% | 1031.5 hPa | 0 mm | - | - | - |
* Rain latest hour (hover to see other rain measurements)
** Current wind speed in m/s (hover to see current wind gust speed)